sensor_id;sensor_type;location;lat;lon;timestamp;pressure;altitude;pressure_sealevel;temperature;humidity
70544;BME280;58097;48.364;-1.224;2023-07-13T00:00:27;99903.75;;;17.57;68.13
70544;BME280;58097;48.364;-1.224;2023-07-13T00:02:52;99901.78;;;17.51;68.70
70544;BME280;58097;48.364;-1.224;2023-07-13T00:05:24;99897.91;;;17.46;68.50
70544;BME280;58097;48.364;-1.224;2023-07-13T00:07:51;99905.84;;;17.42;68.77
70544;BME280;58097;48.364;-1.224;2023-07-13T00:10:17;99904.53;;;17.38;68.98
70544;BME280;58097;48.364;-1.224;2023-07-13T00:12:43;99902.13;;;17.35;69.07
70544;BME280;58097;48.364;-1.224;2023-07-13T00:15:15;99902.53;;;17.32;68.70
70544;BME280;58097;48.364;-1.224;2023-07-13T00:17:52;99907.63;;;17.22;69.39
70544;BME280;58097;48.364;-1.224;2023-07-13T00:20:19;99903.09;;;17.21;69.19
70544;BME280;58097;48.364;-1.224;2023-07-13T00:22:47;99905.03;;;17.20;69.33
70544;BME280;58097;48.364;-1.224;2023-07-13T00:25:12;99898.38;;;17.21;69.43
70544;BME280;58097;48.364;-1.224;2023-07-13T00:27:38;99905.91;;;17.21;69.31
70544;BME280;58097;48.364;-1.224;2023-07-13T00:30:03;99902.44;;;17.19;69.58
70544;BME280;58097;48.364;-1.224;2023-07-13T00:32:29;99899.00;;;17.17;69.25
70544;BME280;58097;48.364;-1.224;2023-07-13T00:34:55;99905.44;;;17.17;69.20
70544;BME280;58097;48.364;-1.224;2023-07-13T00:37:20;99908.44;;;17.16;69.18
70544;BME280;58097;48.364;-1.224;2023-07-13T00:39:45;99911.66;;;17.13;69.67
70544;BME280;58097;48.364;-1.224;2023-07-13T00:42:11;99910.13;;;17.10;69.38
70544;BME280;58097;48.364;-1.224;2023-07-13T00:44:36;99911.19;;;17.09;69.36
70544;BME280;58097;48.364;-1.224;2023-07-13T00:47:02;99907.75;;;17.07;69.45
70544;BME280;58097;48.364;-1.224;2023-07-13T00:49:30;99901.88;;;17.02;69.57
70544;BME280;58097;48.364;-1.224;2023-07-13T00:52:03;99902.09;;;17.00;69.43
70544;BME280;58097;48.364;-1.224;2023-07-13T00:54:41;99907.41;;;16.95;69.43
70544;BME280;58097;48.364;-1.224;2023-07-13T00:57:12;99901.19;;;16.93;69.15
70544;BME280;58097;48.364;-1.224;2023-07-13T00:59:41;99901.59;;;16.90;69.30
70544;BME280;58097;48.364;-1.224;2023-07-13T01:02:07;99906.91;;;16.85;69.30
70544;BME280;58097;48.364;-1.224;2023-07-13T01:04:33;99907.13;;;16.84;69.47
70544;BME280;58097;48.364;-1.224;2023-07-13T01:06:58;99901.94;;;16.81;69.72
70544;BME280;58097;48.364;-1.224;2023-07-13T01:09:27;99901.50;;;16.77;70.07
70544;BME280;58097;48.364;-1.224;2023-07-13T01:11:52;99893.69;;;16.72;69.49
70544;BME280;58097;48.364;-1.224;2023-07-13T01:14:19;99903.13;;;16.71;69.57
70544;BME280;58097;48.364;-1.224;2023-07-13T01:16:45;99894.97;;;16.70;70.29
70544;BME280;58097;48.364;-1.224;2023-07-13T01:19:25;99899.69;;;16.69;70.09
70544;BME280;58097;48.364;-1.224;2023-07-13T01:21:55;99890.44;;;16.69;70.19
70544;BME280;58097;48.364;-1.224;2023-07-13T01:24:20;99896.25;;;16.67;70.09
70544;BME280;58097;48.364;-1.224;2023-07-13T01:26:45;99907.59;;;16.66;70.30
70544;BME280;58097;48.364;-1.224;2023-07-13T01:29:11;99911.63;;;16.63;70.16
70544;BME280;58097;48.364;-1.224;2023-07-13T01:31:36;99908.84;;;16.63;70.14
70544;BME280;58097;48.364;-1.224;2023-07-13T01:34:01;99911.63;;;16.63;70.47
70544;BME280;58097;48.364;-1.224;2023-07-13T01:36:27;99909.91;;;16.62;70.49
70544;BME280;58097;48.364;-1.224;2023-07-13T01:38:52;99910.09;;;16.61;70.62
70544;BME280;58097;48.364;-1.224;2023-07-13T01:41:17;99914.63;;;16.62;70.08
70544;BME280;58097;48.364;-1.224;2023-07-13T01:43:43;99915.03;;;16.59;71.71
70544;BME280;58097;48.364;-1.224;2023-07-13T01:46:08;99920.59;;;16.59;71.54
70544;BME280;58097;48.364;-1.224;2023-07-13T01:48:34;99918.69;;;16.59;71.96
70544;BME280;58097;48.364;-1.224;2023-07-13T01:50:59;99915.47;;;16.62;70.98
70544;BME280;58097;48.364;-1.224;2023-07-13T01:53:25;99914.41;;;16.63;70.51
70544;BME280;58097;48.364;-1.224;2023-07-13T01:55:50;99913.84;;;16.68;70.56
70544;BME280;58097;48.364;-1.224;2023-07-13T01:58:15;99915.56;;;16.69;70.71
70544;BME280;58097;48.364;-1.224;2023-07-13T02:00:41;99926.06;;;16.67;70.89
70544;BME280;58097;48.364;-1.224;2023-07-13T02:03:06;99916.34;;;16.63;70.77
70544;BME280;58097;48.364;-1.224;2023-07-13T02:05:31;99918.28;;;16.62;70.34
70544;BME280;58097;48.364;-1.224;2023-07-13T02:07:56;99910.97;;;16.61;70.64
70544;BME280;58097;48.364;-1.224;2023-07-13T02:10:22;99920.19;;;16.62;70.40
70544;BME280;58097;48.364;-1.224;2023-07-13T02:12:49;99921.94;;;16.63;70.65
70544;BME280;58097;48.364;-1.224;2023-07-13T02:15:15;99910.56;;;16.64;70.51
70544;BME280;58097;48.364;-1.224;2023-07-13T02:17:41;99909.69;;;16.64;70.71
70544;BME280;58097;48.364;-1.224;2023-07-13T02:20:07;99917.00;;;16.65;70.61
70544;BME280;58097;48.364;-1.224;2023-07-13T02:22:33;99907.78;;;16.64;70.80
70544;BME280;58097;48.364;-1.224;2023-07-13T02:24:58;99904.97;;;16.64;70.92
70544;BME280;58097;48.364;-1.224;2023-07-13T02:27:24;99903.66;;;16.60;71.49
70544;BME280;58097;48.364;-1.224;2023-07-13T02:29:49;99907.13;;;16.62;70.69
70544;BME280;58097;48.364;-1.224;2023-07-13T02:32:17;99911.63;;;16.63;71.58
70544;BME280;58097;48.364;-1.224;2023-07-13T02:34:42;99906.03;;;16.63;71.70
70544;BME280;58097;48.364;-1.224;2023-07-13T02:37:07;99906.91;;;16.64;71.69
70544;BME280;58097;48.364;-1.224;2023-07-13T02:39:33;99904.31;;;16.62;71.38
70544;BME280;58097;48.364;-1.224;2023-07-13T02:41:59;99909.03;;;16.62;71.74
70544;BME280;58097;48.364;-1.224;2023-07-13T02:44:25;99902.59;;;16.61;72.47
70544;BME280;58097;48.364;-1.224;2023-07-13T02:46:51;99900.25;;;16.65;72.01
70544;BME280;58097;48.364;-1.224;2023-07-13T02:49:16;99904.13;;;16.64;71.71
70544;BME280;58097;48.364;-1.224;2023-07-13T02:51:42;99897.00;;;16.61;72.50
70544;BME280;58097;48.364;-1.224;2023-07-13T02:54:07;99892.50;;;16.60;72.02
70544;BME280;58097;48.364;-1.224;2023-07-13T02:56:33;99891.84;;;16.58;72.23
70544;BME280;58097;48.364;-1.224;2023-07-13T02:58:59;99904.06;;;16.57;72.88
70544;BME280;58097;48.364;-1.224;2023-07-13T03:01:24;99906.66;;;16.59;72.29
70544;BME280;58097;48.364;-1.224;2023-07-13T03:03:51;99904.72;;;16.59;72.64
70544;BME280;58097;48.364;-1.224;2023-07-13T03:06:17;99900.41;;;16.57;72.78
70544;BME280;58097;48.364;-1.224;2023-07-13T03:08:44;99904.25;;;16.56;72.74
70544;BME280;58097;48.364;-1.224;2023-07-13T03:11:13;99902.75;;;16.53;73.64
70544;BME280;58097;48.364;-1.224;2023-07-13T03:13:39;99908.44;;;16.45;74.06
70544;BME280;58097;48.364;-1.224;2023-07-13T03:16:05;99894.44;;;16.38;74.75
70544;BME280;58097;48.364;-1.224;2023-07-13T03:18:31;99894.81;;;16.35;74.81
70544;BME280;58097;48.364;-1.224;2023-07-13T03:20:57;99901.94;;;16.38;73.99
70544;BME280;58097;48.364;-1.224;2023-07-13T03:23:23;99894.81;;;16.35;73.96
70544;BME280;58097;48.364;-1.224;2023-07-13T03:25:50;99902.34;;;16.35;74.85
70544;BME280;58097;48.364;-1.224;2023-07-13T03:28:15;99902.28;;;16.28;75.92
70544;BME280;58097;48.364;-1.224;2023-07-13T03:30:41;99910.63;;;16.28;74.77
70544;BME280;58097;48.364;-1.224;2023-07-13T03:33:07;99898.41;;;16.29;75.36
70544;BME280;58097;48.364;-1.224;2023-07-13T03:35:34;99910.63;;;16.28;75.05
70544;BME280;58097;48.364;-1.224;2023-07-13T03:37:59;99904.41;;;16.26;75.66
70544;BME280;58097;48.364;-1.224;2023-07-13T03:40:27;99906.78;;;16.29;74.97
70544;BME280;58097;48.364;-1.224;2023-07-13T03:42:52;99901.81;;;16.25;75.95
70544;BME280;58097;48.364;-1.224;2023-07-13T03:45:18;99908.66;;;16.22;75.32
70544;BME280;58097;48.364;-1.224;2023-07-13T03:47:44;99909.13;;;16.26;75.04
70544;BME280;58097;48.364;-1.224;2023-07-13T03:50:09;99908.03;;;16.27;75.69
70544;BME280;58097;48.364;-1.224;2023-07-13T03:52:35;99913.16;;;16.23;75.30
70544;BME280;58097;48.364;-1.224;2023-07-13T03:55:00;99915.56;;;16.26;75.78
70544;BME280;58097;48.364;-1.224;2023-07-13T03:57:26;99924.13;;;16.25;75.72
70544;BME280;58097;48.364;-1.224;2023-07-13T03:59:51;99927.78;;;16.25;75.89
70544;BME280;58097;48.364;-1.224;2023-07-13T04:02:17;99917.69;;;16.24;75.36
70544;BME280;58097;48.364;-1.224;2023-07-13T04:04:43;99917.47;;;16.26;75.67
70544;BME280;58097;48.364;-1.224;2023-07-13T04:07:08;99929.88;;;16.23;75.68
70544;BME280;58097;48.364;-1.224;2023-07-13T04:09:34;99928.44;;;16.27;75.18
70544;BME280;58097;48.364;-1.224;2023-07-13T04:11:59;99934.41;;;16.24;76.51
70544;BME280;58097;48.364;-1.224;2023-07-13T04:14:25;99929.69;;;16.25;75.30
70544;BME280;58097;48.364;-1.224;2023-07-13T04:16:50;99928.44;;;16.27;76.11
70544;BME280;58097;48.364;-1.224;2023-07-13T04:19:15;99936.13;;;16.25;75.86
70544;BME280;58097;48.364;-1.224;2023-07-13T04:21:41;99938.53;;;16.28;75.65
70544;BME280;58097;48.364;-1.224;2023-07-13T04:24:06;99935.47;;;16.23;76.84
70544;BME280;58097;48.364;-1.224;2023-07-13T04:26:33;99948.53;;;16.23;76.42
70544;BME280;58097;48.364;-1.224;2023-07-13T04:29:01;99951.13;;;16.24;76.24
70544;BME280;58097;48.364;-1.224;2023-07-13T04:31:29;99942.31;;;16.21;77.39
70544;BME280;58097;48.364;-1.224;2023-07-13T04:33:54;99940.28;;;16.15;77.98
70544;BME280;58097;48.364;-1.224;2023-07-13T04:36:19;99951.03;;;16.18;77.27
70544;BME280;58097;48.364;-1.224;2023-07-13T04:38:45;99964.81;;;16.19;76.59
70544;BME280;58097;48.364;-1.224;2023-07-13T04:41:10;99952.59;;;16.20;77.31
70544;BME280;58097;48.364;-1.224;2023-07-13T04:43:36;99949.09;;;16.18;77.73
70544;BME280;58097;48.364;-1.224;2023-07-13T04:46:12;99955.38;;;16.20;77.05
70544;BME280;58097;48.364;-1.224;2023-07-13T04:48:38;99956.06;;;16.22;77.37
70544;BME280;58097;48.364;-1.224;2023-07-13T04:51:04;99957.31;;;16.20;77.51
70544;BME280;58097;48.364;-1.224;2023-07-13T04:53:30;99964.41;;;16.22;77.40
70544;BME280;58097;48.364;-1.224;2023-07-13T04:55:56;99966.13;;;16.23;77.86
70544;BME280;58097;48.364;-1.224;2023-07-13T04:58:22;99965.47;;;16.21;77.37
70544;BME280;58097;48.364;-1.224;2023-07-13T05:00:48;99963.06;;;16.18;78.44
70544;BME280;58097;48.364;-1.224;2023-07-13T05:03:13;99961.31;;;16.17;77.61
70544;BME280;58097;48.364;-1.224;2023-07-13T05:05:39;99964.31;;;16.16;78.29
70544;BME280;58097;48.364;-1.224;2023-07-13T05:08:04;99963.06;;;16.18;78.09
70544;BME280;58097;48.364;-1.224;2023-07-13T05:10:30;99969.88;;;16.16;78.11
70544;BME280;58097;48.364;-1.224;2023-07-13T05:12:55;99971.16;;;16.13;78.37
70544;BME280;58097;48.364;-1.224;2023-07-13T05:15:21;99973.06;;;16.13;78.38
70544;BME280;58097;48.364;-1.224;2023-07-13T05:17:48;99965.38;;;16.15;78.53
70544;BME280;58097;48.364;-1.224;2023-07-13T05:20:14;99968.47;;;16.20;78.61
70544;BME280;58097;48.364;-1.224;2023-07-13T05:22:40;99970.19;;;16.21;78.37
70544;BME280;58097;48.364;-1.224;2023-07-13T05:25:06;99968.81;;;16.17;79.42
70544;BME280;58097;48.364;-1.224;2023-07-13T05:27:32;99967.28;;;16.14;79.27
70544;BME280;58097;48.364;-1.224;2023-07-13T05:29:57;99968.56;;;16.11;79.38
70544;BME280;58097;48.364;-1.224;2023-07-13T05:32:22;99969.03;;;16.15;78.90
70544;BME280;58097;48.364;-1.224;2023-07-13T05:34:48;99980.19;;;16.15;79.75
70544;BME280;58097;48.364;-1.224;2023-07-13T05:37:13;99973.25;;;16.11;80.13
70544;BME280;58097;48.364;-1.224;2023-07-13T05:39:38;99975.38;;;16.09;80.28
70544;BME280;58097;48.364;-1.224;2023-07-13T05:42:05;99976.66;;;16.06;80.65
70544;BME280;58097;48.364;-1.224;2023-07-13T05:44:30;99983.69;;;16.02;80.59
70544;BME280;58097;48.364;-1.224;2023-07-13T05:46:57;99986.00;;;15.99;80.98
70544;BME280;58097;48.364;-1.224;2023-07-13T05:49:23;99983.88;;;16.01;80.94
70544;BME280;58097;48.364;-1.224;2023-07-13T05:51:48;99988.19;;;16.03;80.75
70544;BME280;58097;48.364;-1.224;2023-07-13T05:54:13;99991.66;;;16.05;81.03
70544;BME280;58097;48.364;-1.224;2023-07-13T05:56:39;99990.50;;;16.00;81.75
70544;BME280;58097;48.364;-1.224;2023-07-13T05:59:04;99991.16;;;16.02;81.43
70544;BME280;58097;48.364;-1.224;2023-07-13T06:01:30;100007.50;;;16.05;80.77
70544;BME280;58097;48.364;-1.224;2023-07-13T06:03:56;100012.09;;;16.13;80.59
70544;BME280;58097;48.364;-1.224;2023-07-13T06:06:21;100014.09;;;16.19;80.19
70544;BME280;58097;48.364;-1.224;2023-07-13T06:08:46;100012.47;;;16.24;80.21
70544;BME280;58097;48.364;-1.224;2023-07-13T06:11:20;100019.19;;;16.30;79.25
70544;BME280;58097;48.364;-1.224;2023-07-13T06:13:46;100016.81;;;16.27;81.01
70544;BME280;58097;48.364;-1.224;2023-07-13T06:16:12;100023.63;;;16.24;81.14
70544;BME280;58097;48.364;-1.224;2023-07-13T06:18:39;100025.75;;;16.22;81.48
70544;BME280;58097;48.364;-1.224;2023-07-13T06:21:09;100030.94;;;16.25;81.43
70544;BME280;58097;48.364;-1.224;2023-07-13T06:23:35;100036.31;;;16.27;81.04
70544;BME280;58097;48.364;-1.224;2023-07-13T06:26:01;100035.06;;;16.29;81.42
70544;BME280;58097;48.364;-1.224;2023-07-13T06:28:28;100033.59;;;16.33;81.21
70544;BME280;58097;48.364;-1.224;2023-07-13T06:30:54;100030.44;;;16.36;81.11
70544;BME280;58097;48.364;-1.224;2023-07-13T06:33:19;100037.34;;;16.40;80.54
70544;BME280;58097;48.364;-1.224;2023-07-13T06:35:44;100037.34;;;16.40;81.60
70544;BME280;58097;48.364;-1.224;2023-07-13T06:38:10;100038.41;;;16.39;81.87
70544;BME280;58097;48.364;-1.224;2023-07-13T06:40:35;100036.66;;;16.38;81.76
70544;BME280;58097;48.364;-1.224;2023-07-13T06:43:00;100045.97;;;16.46;81.23
70544;BME280;58097;48.364;-1.224;2023-07-13T06:45:26;100055.22;;;16.46;81.05
70544;BME280;58097;48.364;-1.224;2023-07-13T06:47:51;100048.56;;;16.47;81.05
70544;BME280;58097;48.364;-1.224;2023-07-13T06:50:16;100048.66;;;16.54;80.85
70544;BME280;58097;48.364;-1.224;2023-07-13T06:52:42;100054.53;;;16.59;80.79
70544;BME280;58097;48.364;-1.224;2023-07-13T06:55:07;100049.91;;;16.66;79.77
70544;BME280;58097;48.364;-1.224;2023-07-13T06:57:33;100060.28;;;16.72;80.47
70544;BME280;58097;48.364;-1.224;2023-07-13T06:59:58;100055.84;;;16.78;79.90
70544;BME280;58097;48.364;-1.224;2023-07-13T07:02:24;100058.16;;;16.74;80.99
70544;BME280;58097;48.364;-1.224;2023-07-13T07:04:49;100058.91;;;16.83;80.30
70544;BME280;58097;48.364;-1.224;2023-07-13T07:07:15;100053.31;;;16.83;81.06
70544;BME280;58097;48.364;-1.224;2023-07-13T07:09:40;100066.69;;;16.87;79.99
70544;BME280;58097;48.364;-1.224;2023-07-13T07:12:06;100054.72;;;16.93;79.92
70544;BME280;58097;48.364;-1.224;2023-07-13T07:14:32;100059.69;;;16.98;79.58
70544;BME280;58097;48.364;-1.224;2023-07-13T07:16:59;100067.47;;;17.02;79.95
70544;BME280;58097;48.364;-1.224;2023-07-13T07:19:24;100063.41;;;17.05;79.53
70544;BME280;58097;48.364;-1.224;2023-07-13T07:21:50;100056.38;;;17.09;80.23
70544;BME280;58097;48.364;-1.224;2023-07-13T07:24:15;100070.63;;;17.14;79.62
70544;BME280;58097;48.364;-1.224;2023-07-13T07:26:41;100073.88;;;17.18;79.32
70544;BME280;58097;48.364;-1.224;2023-07-13T07:29:06;100082.09;;;17.26;79.50
70544;BME280;58097;48.364;-1.224;2023-07-13T07:31:31;100092.88;;;17.29;79.24
70544;BME280;58097;48.364;-1.224;2023-07-13T07:33:57;100089.00;;;17.30;79.82
70544;BME280;58097;48.364;-1.224;2023-07-13T07:36:22;100095.19;;;17.25;79.89
70544;BME280;58097;48.364;-1.224;2023-07-13T07:38:47;100098.41;;;17.22;79.97
70544;BME280;58097;48.364;-1.224;2023-07-13T07:41:13;100096.94;;;17.26;79.73
70544;BME280;58097;48.364;-1.224;2023-07-13T07:43:39;100103.38;;;17.27;80.01
70544;BME280;58097;48.364;-1.224;2023-07-13T07:46:04;100110.44;;;17.23;80.48
70544;BME280;58097;48.364;-1.224;2023-07-13T07:48:30;100113.22;;;17.23;79.98
70544;BME280;58097;48.364;-1.224;2023-07-13T07:50:56;100103.56;;;17.25;79.69
70544;BME280;58097;48.364;-1.224;2023-07-13T07:53:21;100101.25;;;17.29;79.42
70544;BME280;58097;48.364;-1.224;2023-07-13T07:55:46;100108.16;;;17.33;79.29
70544;BME280;58097;48.364;-1.224;2023-07-13T07:58:12;100100.06;;;17.38;78.96
70544;BME280;58097;48.364;-1.224;2023-07-13T08:00:38;100105.03;;;17.43;79.35
70544;BME280;58097;48.364;-1.224;2023-07-13T08:03:03;100103.13;;;17.43;79.72
70544;BME280;58097;48.364;-1.224;2023-07-13T08:05:28;100108.50;;;17.45;79.50
70544;BME280;58097;48.364;-1.224;2023-07-13T08:07:54;100111.09;;;17.46;79.91
70544;BME280;58097;48.364;-1.224;2023-07-13T08:10:19;100099.97;;;17.53;79.35
70544;BME280;58097;48.364;-1.224;2023-07-13T08:12:45;100107.75;;;17.57;79.79
70544;BME280;58097;48.364;-1.224;2023-07-13T08:15:16;100112.91;;;17.60;79.42
70544;BME280;58097;48.364;-1.224;2023-07-13T08:17:41;100115.88;;;17.74;78.72
70544;BME280;58097;48.364;-1.224;2023-07-13T08:20:07;100109.06;;;17.83;78.64
70544;BME280;58097;48.364;-1.224;2023-07-13T08:22:34;100104.84;;;17.93;78.25
70544;BME280;58097;48.364;-1.224;2023-07-13T08:25:00;100113.69;;;17.97;78.09
70544;BME280;58097;48.364;-1.224;2023-07-13T08:27:27;100111.56;;;17.99;77.31
70544;BME280;58097;48.364;-1.224;2023-07-13T08:29:53;100107.72;;;18.07;77.38
70544;BME280;58097;48.364;-1.224;2023-07-13T08:32:20;100107.09;;;18.11;77.49
70544;BME280;58097;48.364;-1.224;2023-07-13T08:34:46;100109.06;;;18.17;77.08
70544;BME280;58097;48.364;-1.224;2023-07-13T08:37:11;100110.41;;;18.21;77.17
70544;BME280;58097;48.364;-1.224;2023-07-13T08:39:37;100104.00;;;18.27;76.87
70544;BME280;58097;48.364;-1.224;2023-07-13T08:42:11;100108.13;;;18.38;77.08
70544;BME280;58097;48.364;-1.224;2023-07-13T08:45:17;100114.19;;;18.48;76.17
70544;BME280;58097;48.364;-1.224;2023-07-13T08:47:48;100106.50;;;18.57;76.03
70544;BME280;58097;48.364;-1.224;2023-07-13T08:50:20;100100.34;;;18.68;75.40
70544;BME280;58097;48.364;-1.224;2023-07-13T08:52:46;100091.94;;;18.68;74.44
70544;BME280;58097;48.364;-1.224;2023-07-13T08:55:18;100103.81;;;18.77;75.00
70544;BME280;58097;48.364;-1.224;2023-07-13T08:57:50;100097.81;;;18.86;74.21
70544;BME280;58097;48.364;-1.224;2023-07-13T09:00:18;100095.75;;;19.08;75.54
70544;BME280;58097;48.364;-1.224;2023-07-13T09:02:54;100095.53;;;19.30;75.13
70544;BME280;58097;48.364;-1.224;2023-07-13T09:05:33;100104.22;;;19.55;73.39
70544;BME280;58097;48.364;-1.224;2023-07-13T09:11:01;100092.97;;;19.94;72.50
70544;BME280;58097;48.364;-1.224;2023-07-13T09:13:48;100089.47;;;20.32;73.58
70544;BME280;58097;48.364;-1.224;2023-07-13T09:16:15;100097.16;;;20.63;69.71
70544;BME280;58097;48.364;-1.224;2023-07-13T09:18:46;100094.69;;;20.80;67.95
70544;BME280;58097;48.364;-1.224;2023-07-13T09:21:20;100094.00;;;20.91;68.27
70544;BME280;58097;48.364;-1.224;2023-07-13T09:23:47;100101.84;;;20.82;64.67
70544;BME280;58097;48.364;-1.224;2023-07-13T09:26:23;100097.50;;;20.80;67.69
70544;BME280;58097;48.364;-1.224;2023-07-13T09:28:53;100104.03;;;20.73;65.46
70544;BME280;58097;48.364;-1.224;2023-07-13T09:31:26;100101.84;;;20.76;66.92
70544;BME280;58097;48.364;-1.224;2023-07-13T09:33:55;100101.84;;;20.82;65.67
70544;BME280;58097;48.364;-1.224;2023-07-13T09:36:24;100092.75;;;20.87;64.30
70544;BME280;58097;48.364;-1.224;2023-07-13T09:39:13;100102.88;;;20.88;64.55
70544;BME280;58097;48.364;-1.224;2023-07-13T09:41:54;100106.34;;;20.90;62.82
70544;BME280;58097;48.364;-1.224;2023-07-13T09:44:35;100102.34;;;21.11;63.72
70544;BME280;58097;48.364;-1.224;2023-07-13T09:47:01;100106.94;;;21.37;63.12
70544;BME280;58097;48.364;-1.224;2023-07-13T09:49:34;100101.06;;;21.45;60.54
70544;BME280;58097;48.364;-1.224;2023-07-13T09:52:06;100100.13;;;21.51;62.55
70544;BME280;58097;48.364;-1.224;2023-07-13T09:54:36;100115.19;;;21.31;59.96
70544;BME280;58097;48.364;-1.224;2023-07-13T09:57:04;100105.22;;;20.97;60.95
70544;BME280;58097;48.364;-1.224;2023-07-13T09:59:41;100114.16;;;21.19;63.14
70544;BME280;58097;48.364;-1.224;2023-07-13T10:02:28;100103.34;;;21.54;61.38
70544;BME280;58097;48.364;-1.224;2023-07-13T10:05:05;100096.94;;;21.72;62.86
70544;BME280;58097;48.364;-1.224;2023-07-13T10:07:32;100096.88;;;21.79;61.51
70544;BME280;58097;48.364;-1.224;2023-07-13T10:10:03;100093.09;;;21.42;58.66
70544;BME280;58097;48.364;-1.224;2023-07-13T10:12:30;100094.78;;;21.11;58.73
70544;BME280;58097;48.364;-1.224;2023-07-13T10:15:00;100097.50;;;20.86;59.40
70544;BME280;58097;48.364;-1.224;2023-07-13T10:17:29;100101.63;;;20.77;59.41
70544;BME280;58097;48.364;-1.224;2023-07-13T10:20:03;100109.38;;;20.88;60.23
70544;BME280;58097;48.364;-1.224;2023-07-13T10:22:42;100106.50;;;20.95;60.90
70544;BME280;58097;48.364;-1.224;2023-07-13T10:25:18;100115.50;;;21.10;60.60
70544;BME280;58097;48.364;-1.224;2023-07-13T10:27:45;100114.88;;;21.08;59.68
70544;BME280;58097;48.364;-1.224;2023-07-13T10:30:27;100120.16;;;20.91;57.82
70544;BME280;58097;48.364;-1.224;2023-07-13T10:32:58;100117.31;;;20.98;59.26
70544;BME280;58097;48.364;-1.224;2023-07-13T10:35:26;100112.91;;;21.09;58.49
70544;BME280;58097;48.364;-1.224;2023-07-13T10:37:59;100111.97;;;21.28;59.36
70544;BME280;58097;48.364;-1.224;2023-07-13T10:40:32;100111.91;;;21.41;58.96
70544;BME280;58097;48.364;-1.224;2023-07-13T10:43:02;100112.19;;;21.58;60.06
70544;BME280;58097;48.364;-1.224;2023-07-13T10:45:34;100112.13;;;21.64;59.12
70544;BME280;58097;48.364;-1.224;2023-07-13T10:48:00;100111.88;;;21.73;59.19
70544;BME280;58097;48.364;-1.224;2023-07-13T10:50:28;100104.94;;;21.75;57.63
70544;BME280;58097;48.364;-1.224;2023-07-13T10:53:02;100110.94;;;21.79;57.32
70544;BME280;58097;48.364;-1.224;2023-07-13T11:03:34;100100.25;;;21.87;56.34
70544;BME280;58097;48.364;-1.224;2023-07-13T11:06:07;100094.22;;;21.84;54.56
70544;BME280;58097;48.364;-1.224;2023-07-13T11:08:50;100100.41;;;21.92;55.53
70544;BME280;58097;48.364;-1.224;2023-07-13T11:14:00;100105.09;;;21.80;53.49
70544;BME280;58097;48.364;-1.224;2023-07-13T11:16:44;100096.41;;;21.82;55.68
70544;BME280;58097;48.364;-1.224;2023-07-13T11:30:31;100105.50;;;21.84;55.61
70544;BME280;58097;48.364;-1.224;2023-07-13T11:33:22;100102.59;;;21.90;54.98
70544;BME280;58097;48.364;-1.224;2023-07-13T11:38:22;100096.97;;;21.90;55.27
70544;BME280;58097;48.364;-1.224;2023-07-13T11:40:50;100093.69;;;21.93;54.26
70544;BME280;58097;48.364;-1.224;2023-07-13T11:43:16;100094.53;;;22.01;54.53
70544;BME280;58097;48.364;-1.224;2023-07-13T11:45:43;100088.03;;;22.00;52.00
70544;BME280;58097;48.364;-1.224;2023-07-13T11:48:37;100088.66;;;22.02;53.74
70544;BME280;58097;48.364;-1.224;2023-07-13T11:51:04;100095.75;;;22.11;54.07
70544;BME280;58097;48.364;-1.224;2023-07-13T11:53:39;100095.75;;;22.11;51.81
70544;BME280;58097;48.364;-1.224;2023-07-13T11:56:06;100097.09;;;22.02;52.40
70544;BME280;58097;48.364;-1.224;2023-07-13T11:58:32;100088.91;;;22.01;52.57
70544;BME280;58097;48.364;-1.224;2023-07-13T12:01:00;100089.53;;;22.03;53.87
70544;BME280;58097;48.364;-1.224;2023-07-13T12:03:30;100093.69;;;21.93;52.40
70544;BME280;58097;48.364;-1.224;2023-07-13T12:08:24;100090.88;;;21.93;51.62
70544;BME280;58097;48.364;-1.224;2023-07-13T12:10:56;100092.44;;;21.89;52.64
70544;BME280;58097;48.364;-1.224;2023-07-13T12:13:22;100091.97;;;21.92;52.83
70544;BME280;58097;48.364;-1.224;2023-07-13T12:15:48;100090.66;;;21.95;53.02
70544;BME280;58097;48.364;-1.224;2023-07-13T12:18:16;100088.03;;;22.00;53.29
70544;BME280;58097;48.364;-1.224;2023-07-13T12:20:44;100100.16;;;22.01;51.86
70544;BME280;58097;48.364;-1.224;2023-07-13T12:23:23;100090.84;;;22.00;52.12
70544;BME280;58097;48.364;-1.224;2023-07-13T12:25:50;100100.34;;;22.06;53.58
70544;BME280;58097;48.364;-1.224;2023-07-13T12:28:32;100089.72;;;22.08;52.82
70544;BME280;58097;48.364;-1.224;2023-07-13T12:31:00;100088.00;;;22.07;52.26
70544;BME280;58097;48.364;-1.224;2023-07-13T12:33:28;100092.75;;;22.06;51.95
70544;BME280;58097;48.364;-1.224;2023-07-13T12:37:01;100083.53;;;22.17;52.79
70544;BME280;58097;48.364;-1.224;2023-07-13T12:39:38;100083.03;;;22.27;53.43
70544;BME280;58097;48.364;-1.224;2023-07-13T12:44:58;100078.16;;;22.71;53.01
70544;BME280;58097;48.364;-1.224;2023-07-13T12:47:24;100071.19;;;22.92;52.15
70544;BME280;58097;48.364;-1.224;2023-07-13T12:49:55;100075.44;;;23.12;51.28
70544;BME280;58097;48.364;-1.224;2023-07-13T12:52:23;100086.03;;;23.29;50.51
70544;BME280;58097;48.364;-1.224;2023-07-13T12:54:53;100074.28;;;23.32;49.44
70544;BME280;58097;48.364;-1.224;2023-07-13T12:57:22;100080.66;;;23.39;50.38
70544;BME280;58097;48.364;-1.224;2023-07-13T12:59:52;100074.41;;;23.37;50.34
70544;BME280;58097;48.364;-1.224;2023-07-13T13:02:32;100081.63;;;23.33;51.09
70544;BME280;58097;48.364;-1.224;2023-07-13T13:04:59;100082.75;;;23.32;50.90
70544;BME280;58097;48.364;-1.224;2023-07-13T13:07:25;100071.69;;;23.30;51.42
70544;BME280;58097;48.364;-1.224;2023-07-13T13:09:51;100073.78;;;23.35;50.57
70544;BME280;58097;48.364;-1.224;2023-07-13T13:12:18;100079.81;;;23.38;50.17
70544;BME280;58097;48.364;-1.224;2023-07-13T13:14:44;100073.78;;;23.35;50.38
70544;BME280;58097;48.364;-1.224;2023-07-13T13:17:19;100077.97;;;23.32;50.92
70544;BME280;58097;48.364;-1.224;2023-07-13T13:19:46;100074.88;;;23.22;50.34
70544;BME280;58097;48.364;-1.224;2023-07-13T13:22:12;100078.78;;;23.21;51.24